チタ の空港の天気 - METARとTAF

チタ・カダラ空港 ( UIAA / HTA ) - ロシア チタ
飛行場実況気象(Metar)
観測時間01/23 14:30 YAKT (01/23 05:30 UTC)
風向・風速南西 4m/s
視程10km以上
天気現象
なし
気温-24℃
湿度36%
気圧1019hPa
METARUIAA 230530Z 22004MPS 9999 NSC M24/M35 Q1019 R29/810160 NOSIG RMK QFE706/0941
過去の天気等 Google飛行場航空写真 Wunderground天気予報

過去48時間のMETAR

飛行場予報(TAF)
発表時間: 1/23 14:00 YAKT (1/23 05:00 UTC)
予報対象時間: 23日15時 YAKT ~ 24日15時 YAKT
風向・風速西 3m/s 瞬間風速 8m/s
視程10km以上
なし
TAF UIAA 230500Z 2306/2406 26003G08MPS 9999 NSC